Airfield :
LOGIN :

Register | Disclaimer

   EN    FR    IT 

 










Legend :    VFR   Marginal VFR   IFR   Intensive IFR   Very Intensive IFR
Visi :
Ceiling :
>= 8 km
>= 3000ft
5 to 8 km
1000 to 3000 ft
1500m to 5 km
500 to 1000 ft
800 to 1500m
200 to 500 ft
< 800m
< 200 ft
Symbols :   Thunderstorms  Fog  Heavy snow  Heavy precipitations  Wind > 20 kt
SIGMETs :     Misc.  Thunderstorms  Icing  Turbulence  Mountain Waves  Volcanic Ashes






- Airport Elevation : 290 ft
- IATA code : LAI


LFRO - Lannion

CURRENT METAR :
  • 160500Z AUTO 29007KT 270V330 4900 BR OVC003/// ///TCU 13/13 Q1003

EXPIRED METARs :
  • 160430Z AUTO 30011KT 4900 -DZ BR OVC003 14/13 Q1003
  • 160400Z AUTO 21010KT 180V240 6000 -DZ OVC004 16/15 Q1002
  • 160330Z AUTO 20008KT 5000 -DZ BR OVC005 15/15 Q1002
  • 160300Z AUTO 19009KT 6000 -RADZ OVC007 15/15 Q1002
  • 160230Z AUTO 20010KT 9999 BKN008/// BKN012/// OVC020/// ///TCU 15/14 Q1002

Expired Forecast.



MET'MAP, your aeronautical weather chart ! - Copyright ORBIFLY December 2007 - Disclaimer

ORBIFLY MET'MAP TEAM :

Programming & Development : Alexandra Zaïnal
Concept & Development : Baudouin d'Aumeries
Co-Development & Prog : Marc-Olivier Méhu
Technical & hardware support : Manuel Goepfert

Contact : metmap@orbifly.com




SOURCES & CREDITS :

   NOAA